Time;durP1;ratioP1;P1;durP2;ratioP2;P2;SDS_P1;SDS_P2;PMS_P1;PMS_P2;Temp;Humidity;BMP_temperature;BMP_pressure;BME280_temperature;BME280_humidity;BME280_pressure;Samples;Min_cycle;Max_cycle;Signal;HPM_P1;HPM_P2
2021/12/25 00:00:33;;;;;;;;;47.20;39.80;;;;;10.10;83.08;99732.63;5035114;28;45443;-58
2021/12/25 00:02:58;;;;;;;;;46.75;37.75;;;;;10.10;82.70;99743.59;4985245;28;45891;-57
2021/12/25 00:05:24;;;;;;;;;37.50;36.00;;;;;10.13;82.61;99740.34;5015745;28;45405;-53
2021/12/25 00:07:49;;;;;;;;;44.25;38.00;;;;;9.96;82.81;99710.03;5017029;28;45272;-61
2021/12/25 00:10:15;;;;;;;;;35.75;31.25;;;;;10.16;82.17;99736.31;4970551;28;45462;-57
2021/12/25 00:12:40;;;;;;;;;37.75;31.50;;;;;10.15;81.89;99729.97;4994978;28;45351;-53
2021/12/25 00:15:06;;;;;;;;;39.00;34.50;;;;;10.15;82.63;99735.47;4999255;28;45317;-58
2021/12/25 00:17:32;;;;;;;;;37.50;33.25;;;;;10.14;82.39;99732.97;5016960;28;45392;-59
2021/12/25 00:19:58;;;;;;;;;32.80;27.60;;;;;10.05;81.92;99710.53;5016773;28;45380;-58
2021/12/25 00:22:23;;;;;;;;;30.25;29.00;;;;;10.17;82.04;99727.88;5016694;28;45973;-57
2021/12/25 00:24:49;;;;;;;;;30.25;26.50;;;;;10.13;82.12;99717.56;5022247;28;45423;-59
2021/12/25 00:34:46;;;;;;;;;28.20;25.40;;;;;10.15;82.22;99707.22;5036361;28;45169;-61
2021/12/25 00:37:11;;;;;;;;;32.75;30.00;;;;;10.14;82.46;99705.56;5036543;28;45366;-55
2021/12/25 00:39:37;;;;;;;;;35.25;27.50;;;;;10.13;81.85;99699.22;5036752;28;45623;-59
2021/12/25 00:42:03;;;;;;;;;30.50;24.00;;;;;10.13;82.24;99696.50;5035937;28;45958;-60
2021/12/25 00:44:29;;;;;;;;;28.80;25.80;;;;;10.13;82.39;99693.75;5017671;28;45264;-58
2021/12/25 00:46:55;;;;;;;;;34.75;29.00;;;;;9.92;81.68;99651.25;5035122;28;45466;-60
2021/12/25 00:49:20;;;;;;;;;33.50;29.50;;;;;9.92;81.93;99655.91;4991059;28;45424;-61
2021/12/25 00:51:46;;;;;;;;;29.25;25.50;;;;;10.09;81.74;99689.78;4997365;28;47940;-56
2021/12/25 00:54:12;;;;;;;;;27.75;26.25;;;;;9.88;82.25;99653.63;4998109;28;45339;-57
2021/12/25 00:56:37;;;;;;;;;28.75;26.25;;;;;10.13;82.00;99692.91;4981995;28;45592;-58
2021/12/25 00:59:03;;;;;;;;;29.25;27.50;;;;;10.13;82.47;99698.38;4981946;28;45617;-57
2021/12/25 01:01:28;;;;;;;;;22.00;20.25;;;;;10.14;81.64;99697.34;5015877;28;45474;-54
2021/12/25 01:03:54;;;;;;;;;25.00;21.50;;;;;10.13;81.55;99693.75;5015731;28;45393;-59
2021/12/25 01:06:19;;;;;;;;;29.25;27.50;;;;;10.11;81.94;99695.91;4998008;28;45448;-59
2021/12/25 01:08:45;;;;;;;;;30.00;25.25;;;;;10.10;81.97;99699.72;5016233;28;45339;-57
2021/12/25 01:11:10;;;;;;;;;26.50;24.25;;;;;10.09;81.73;99698.00;5016017;28;45439;-60
2021/12/25 01:13:42;;;;;;;;;28.25;24.75;;;;;10.06;81.67;99698.50;5015755;28;45383;-61
2021/12/25 01:19:13;;;;;;;;;29.60;27.00;;;;;10.03;81.56;99701.69;5015971;28;45361;-53
2021/12/25 01:22:05;;;;;;;;;25.00;21.20;;;;;10.01;81.82;99701.09;5015661;28;46192;-60
2021/12/25 01:25:01;;;;;;;;;28.20;24.80;;;;;9.74;81.10;99668.59;5015217;28;45390;-62
2021/12/25 01:30:04;;;;;;;;;24.00;19.80;;;;;9.92;82.53;99718.97;5016050;28;45434;-61
2021/12/25 01:33:19;;;;;;;;;20.80;18.20;;;;;9.81;82.02;99713.19;5015666;28;45598;-59
2021/12/25 01:48:34;;;;;;;;;25.20;21.20;;;;;9.54;81.53;99672.47;5015437;28;45339;-58
2021/12/25 01:50:59;;;;;;;;;28.60;21.40;;;;;9.78;82.22;99710.94;5015406;28;45532;-55
2021/12/25 01:53:25;;;;;;;;;21.25;20.00;;;;;9.81;81.53;99715.94;4997120;28;48637;-62
2021/12/25 01:55:50;;;;;;;;;25.75;23.25;;;;;9.80;81.99;99714.25;4996553;28;45928;-59
2021/12/25 01:58:16;;;;;;;;;19.25;18.25;;;;;9.76;82.20;99713.88;5015327;28;45423;-54
2021/12/25 02:00:47;;;;;;;;;23.00;18.00;;;;;9.77;82.81;99703.78;5015778;28;45456;-60
2021/12/25 02:03:14;;;;;;;;;27.40;21.20;;;;;9.75;81.55;99709.47;5014393;28;45745;-61
2021/12/25 02:05:40;;;;;;;;;23.60;21.40;;;;;9.60;81.75;99689.84;4997049;28;45662;-62
2021/12/25 02:08:05;;;;;;;;;25.00;22.25;;;;;9.69;82.53;99704.94;5015386;28;45345;-57
2021/12/25 02:10:31;;;;;;;;;23.00;18.75;;;;;9.72;82.61;99711.84;4977313;28;45584;-55
2021/12/25 02:12:56;;;;;;;;;21.50;18.75;;;;;9.71;82.11;99723.88;5014698;28;46411;-62
2021/12/25 02:15:24;;;;;;;;;18.75;17.75;;;;;9.67;82.10;99708.97;5014556;28;45520;-55
2021/12/25 02:20:48;;;;;;;;;20.00;18.60;;;;;9.69;82.67;99721.38;5014716;28;45455;-61
2021/12/25 02:23:19;;;;;;;;;22.00;18.60;;;;;9.70;82.78;99723.03;4998866;28;46091;-60
2021/12/25 02:25:44;;;;;;;;;20.00;16.00;;;;;9.66;82.01;99701.81;5014526;28;45670;-61
2021/12/25 02:28:12;;;;;;;;;14.75;14.00;;;;;9.63;82.06;99711.31;4980497;28;45330;-56
2021/12/25 02:30:38;;;;;;;;;15.40;14.00;;;;;9.68;82.01;99710.63;5014931;28;45343;-55
2021/12/25 02:33:03;;;;;;;;;17.50;17.50;;;;;9.74;81.94;99712.44;4997164;28;45982;-61
2021/12/25 02:35:29;;;;;;;;;19.25;17.25;;;;;9.75;82.40;99722.34;4996899;28;45229;-58
2021/12/25 02:37:54;;;;;;;;;24.50;19.25;;;;;9.77;81.56;99717.47;5014501;28;45320;-55
2021/12/25 02:40:20;;;;;;;;;17.50;17.50;;;;;9.80;82.16;99719.75;5015045;28;45488;-59
2021/12/25 02:42:45;;;;;;;;;21.25;15.50;;;;;9.82;82.39;99714.84;4996805;28;45623;-55
2021/12/25 02:45:16;;;;;;;;;21.25;17.00;;;;;9.85;81.95;99717.16;5014335;28;45399;-51
2021/12/25 02:47:43;;;;;;;;;18.00;18.00;;;;;9.82;81.21;99709.38;5014785;28;45354;-55
2021/12/25 02:50:09;;;;;;;;;22.20;19.60;;;;;9.90;81.69;99714.56;5014478;28;45584;-50
2021/12/25 02:52:35;;;;;;;;;19.60;14.60;;;;;9.78;81.98;99691.75;5014528;28;45358;-54
2021/12/25 02:55:00;;;;;;;;;18.25;16.50;;;;;9.94;81.43;99708.59;5014257;28;45349;-60
2021/12/25 02:57:26;;;;;;;;;21.75;19.25;;;;;9.94;81.16;99708.59;5014829;28;45448;-57
2021/12/25 02:59:51;;;;;;;;;16.00;13.25;;;;;9.83;81.90;99685.56;5014456;28;45651;-58
2021/12/25 03:02:17;;;;;;;;;21.50;18.00;;;;;9.98;81.57;99713.38;5014149;28;46554;-61
2021/12/25 03:04:45;;;;;;;;;15.75;15.50;;;;;9.50;81.65;99632.88;5014213;28;45397;-57
2021/12/25 03:07:11;;;;;;;;;15.80;13.00;;;;;10.04;81.11;99714.34;4996816;28;45706;-55
2021/12/25 03:09:38;;;;;;;;;19.60;16.60;;;;;10.05;81.20;99718.75;5000394;28;45618;-60
2021/12/25 03:12:05;;;;;;;;;21.20;18.00;;;;;10.02;80.72;99713.72;5018017;28;45642;-60
2021/12/25 03:14:39;;;;;;;;;12.20;12.20;;;;;9.99;80.98;99717.78;4999884;28;45400;-60
2021/12/25 03:17:05;;;;;;;;;19.20;14.00;;;;;9.76;80.72;99669.19;5000245;28;45396;-59
2021/12/25 03:19:34;;;;;;;;;18.75;14.25;;;;;10.06;80.68;99709.47;5000013;28;45480;-60
2021/12/25 03:22:00;;;;;;;;;15.40;13.00;;;;;10.08;81.38;99720.22;5017264;28;46659;-59
2021/12/25 03:24:26;;;;;;;;;19.20;14.60;;;;;10.05;81.43;99718.75;5029984;28;45316;-56
2021/12/25 03:26:54;;;;;;;;;18.00;16.80;;;;;10.10;80.54;99710.69;5019299;28;45265;-57
2021/12/25 03:29:20;;;;;;;;;15.60;14.20;;;;;10.11;81.04;99720.56;5018017;28;45649;-60
2021/12/25 03:31:46;;;;;;;;;17.50;14.50;;;;;10.13;80.74;99699.22;5017709;28;45446;-61
2021/12/25 03:34:11;;;;;;;;;18.75;16.00;;;;;10.15;80.17;99707.22;4999584;28;45474;-57
2021/12/25 03:36:37;;;;;;;;;26.50;20.75;;;;;10.14;80.74;99709.13;4999915;28;45402;-56
2021/12/25 03:39:03;;;;;;;;;19.00;17.75;;;;;9.96;80.16;99695.47;5017756;28;45548;-61
2021/12/25 03:41:28;;;;;;;;;17.25;17.00;;;;;9.72;80.25;99657.03;5017372;28;46045;-60
2021/12/25 03:43:54;;;;;;;;;20.75;19.25;;;;;10.16;80.30;99725.34;4982862;28;45300;-53
2021/12/25 03:46:19;;;;;;;;;17.00;13.75;;;;;9.66;80.61;99645.09;5017598;28;45502;-57
2021/12/25 03:59:07;;;;;;;;;23.40;18.40;;;;;10.18;80.87;99731.44;4978102;28;45854;-57
2021/12/25 04:06:35;;;;;;;;;18.40;16.80;;;;;10.21;80.80;99738.34;4979563;28;45784;-59
2021/12/25 04:09:03;;;;;;;;;19.80;18.00;;;;;10.22;80.87;99738.13;4980164;28;45789;-54
2021/12/25 04:11:32;;;;;;;;;19.20;18.00;;;;;10.22;80.44;99734.53;4996996;28;46610;-54
2021/12/25 04:13:58;;;;;;;;;24.00;18.80;;;;;10.23;80.32;99738.94;4997639;28;45905;-53
2021/12/25 04:16:26;;;;;;;;;21.00;20.00;;;;;10.21;81.30;99735.59;4997390;28;45381;-61
2021/12/25 04:18:51;;;;;;;;;18.60;17.60;;;;;10.20;80.46;99733.94;4996467;28;45543;-62
2021/12/25 04:21:17;;;;;;;;;25.00;20.25;;;;;10.21;80.79;99732.88;4997098;28;46256;-58
2021/12/25 04:23:43;;;;;;;;;24.50;21.00;;;;;10.21;80.92;99727.38;4996893;28;45354;-55
2021/12/25 04:26:09;;;;;;;;;26.20;19.00;;;;;10.20;80.44;99731.19;5019004;28;45447;-64
2021/12/25 05:04:06;;;;;;;;;27.00;19.60;;;;;10.37;80.34;99734.09;4992540;28;45810;-54
2021/12/25 05:06:08;;;;;;;;;24.00;20.80;;;;;10.38;80.70;99731.13;4991496;28;45312;-59
2021/12/25 05:08:34;;;;;;;;;20.25;17.00;;;;;10.38;80.94;99733.88;4978371;28;45450;-50
2021/12/25 05:10:59;;;;;;;;;23.00;21.50;;;;;10.40;80.99;99742.69;4996803;28;45450;-55
2021/12/25 05:13:25;;;;;;;;;26.25;20.00;;;;;10.37;80.64;99734.09;4996249;28;45543;-60
2021/12/25 05:15:50;;;;;;;;;28.50;19.75;;;;;10.29;80.46;99724.28;4995798;28;45327;-54
2021/12/25 05:18:16;;;;;;;;;24.25;19.75;;;;;10.41;81.20;99738.88;4995057;28;45312;-53
2021/12/25 05:20:42;;;;;;;;;21.25;18.50;;;;;10.40;80.29;99742.69;4978848;28;45394;-60
2021/12/25 05:23:08;;;;;;;;;20.25;20.25;;;;;10.40;80.75;99745.44;4995946;28;46104;-55
2021/12/25 05:25:34;;;;;;;;;19.60;15.40;;;;;10.37;81.17;99743.19;5001615;28;45403;-50
2021/12/25 05:28:01;;;;;;;;;15.80;15.80;;;;;10.35;80.50;99737.06;5036194;28;45372;-55
2021/12/25 05:30:27;;;;;;;;;21.00;19.00;;;;;10.28;80.84;99730.84;5036419;28;45605;-60
2021/12/25 05:32:52;;;;;;;;;26.40;22.80;;;;;10.34;81.42;99742.81;5035855;28;46172;-57
2021/12/25 05:35:18;;;;;;;;;26.75;21.25;;;;;10.36;81.50;99740.66;5035848;28;45335;-51
2021/12/25 05:37:44;;;;;;;;;23.50;21.50;;;;;10.36;80.99;99741.47;5035911;28;45367;-56
2021/12/25 05:40:12;;;;;;;;;27.00;21.25;;;;;10.21;81.02;99728.22;5035868;28;45779;-56
2021/12/25 05:42:37;;;;;;;;;22.80;20.00;;;;;10.36;80.61;99746.97;5035428;28;46291;-53
2021/12/25 05:45:03;;;;;;;;;18.75;18.75;;;;;10.34;81.12;99740.06;5035757;28;45362;-56
2021/12/25 05:47:28;;;;;;;;;23.00;19.25;;;;;10.36;81.06;99746.16;5035411;28;45460;-59
2021/12/25 05:49:54;;;;;;;;;25.50;22.75;;;;;10.32;81.17;99740.28;5035933;28;45409;-54
2021/12/25 05:52:19;;;;;;;;;28.25;25.00;;;;;10.33;81.43;99739.22;5017278;28;47388;-57
2021/12/25 05:54:45;;;;;;;;;24.00;18.00;;;;;10.34;80.37;99748.28;5035428;28;45377;-59
2021/12/25 05:57:10;;;;;;;;;22.00;19.00;;;;;10.20;80.54;99726.56;5035146;28;45289;-52
2021/12/25 05:59:36;;;;;;;;;25.25;22.75;;;;;10.27;81.57;99740.16;5035797;28;45662;-56
2021/12/25 06:02:01;;;;;;;;;24.00;20.00;;;;;10.14;80.82;99725.56;5035307;28;45454;-57
2021/12/25 06:04:27;;;;;;;;;25.00;20.25;;;;;10.29;81.11;99744.34;5035378;28;45382;-53
2021/12/25 06:06:52;;;;;;;;;24.50;19.75;;;;;10.30;80.84;99743.25;5035008;28;45370;-55
2021/12/25 06:09:18;;;;;;;;;23.25;20.00;;;;;10.30;81.29;99748.75;5035611;28;45501;-60
2021/12/25 06:11:45;;;;;;;;;21.50;20.00;;;;;10.30;81.04;99748.75;5035228;28;45284;-54
2021/12/25 06:14:17;;;;;;;;;22.40;22.40;;;;;10.24;81.78;99735.16;5017245;28;45393;-54
2021/12/25 06:16:42;;;;;;;;;24.80;22.20;;;;;10.29;81.76;99748.97;5035030;28;45308;-56
2021/12/25 06:19:08;;;;;;;;;23.25;18.50;;;;;10.28;80.99;99752.78;5035237;28;45589;-55
2021/12/25 06:21:33;;;;;;;;;29.75;23.75;;;;;10.08;81.37;99723.75;5034815;28;45915;-59
2021/12/25 06:24:04;;;;;;;;;27.50;24.50;;;;;10.13;81.07;99732.13;5034934;28;45372;-56
2021/12/25 06:26:29;;;;;;;;;25.40;20.60;;;;;10.13;81.36;99726.66;5024731;28;45440;-53
2021/12/25 06:28:55;;;;;;;;;21.75;19.25;;;;;10.30;81.30;99753.41;4997797;28;45454;-52
2021/12/25 06:31:21;;;;;;;;;28.00;23.00;;;;;10.30;81.32;99758.91;4980809;28;47496;-56
2021/12/25 06:33:47;;;;;;;;;23.60;19.20;;;;;10.30;81.38;99764.38;5014951;28;45307;-60
2021/12/25 06:36:12;;;;;;;;;20.25;20.25;;;;;10.31;80.95;99766.88;4997159;28;45274;-58
2021/12/25 06:38:40;;;;;;;;;27.25;24.00;;;;;10.31;81.62;99772.34;5015361;28;45576;-56
2021/12/25 06:41:05;;;;;;;;;22.40;19.80;;;;;10.33;81.25;99765.78;5014811;28;46297;-58
2021/12/25 06:43:31;;;;;;;;;28.75;21.00;;;;;10.27;81.08;99759.34;5013928;28;45415;-60
2021/12/25 06:45:57;;;;;;;;;24.75;20.25;;;;;10.29;80.88;99771.75;5008847;28;45323;-50
2021/12/25 06:48:22;;;;;;;;;22.75;20.00;;;;;10.30;81.16;99762.47;5009042;28;45460;-53
2021/12/25 06:50:48;;;;;;;;;23.50;21.00;;;;;10.31;81.36;99766.06;5012040;28;46142;-62
2021/12/25 06:53:13;;;;;;;;;22.50;18.00;;;;;10.29;81.01;99768.19;5012382;28;45421;-53
2021/12/25 06:55:39;;;;;;;;;25.50;19.75;;;;;10.27;81.55;99768.44;5014761;28;45356;-54
2021/12/25 06:58:04;;;;;;;;;21.25;17.00;;;;;10.26;81.23;99766.72;5013914;28;45317;-61
2021/12/25 07:00:30;;;;;;;;;22.00;20.00;;;;;10.17;81.39;99748.94;4995579;28;45384;-60
2021/12/25 07:02:57;;;;;;;;;19.25;18.00;;;;;10.25;81.15;99762.31;4995796;28;45407;-52
2021/12/25 07:05:23;;;;;;;;;23.00;19.60;;;;;10.26;81.32;99765.91;5012484;28;45386;-52
2021/12/25 07:07:48;;;;;;;;;25.00;22.75;;;;;10.28;81.12;99766.50;5014394;28;45843;-57
2021/12/25 07:10:14;;;;;;;;;24.25;21.25;;;;;10.28;81.87;99763.75;5014444;28;45633;-58
2021/12/25 07:12:43;;;;;;;;;21.50;18.00;;;;;10.27;81.23;99771.19;5014525;28;45307;-55
2021/12/25 07:15:09;;;;;;;;;24.60;19.80;;;;;10.28;82.01;99772.84;5014197;28;45496;-59
2021/12/25 07:17:34;;;;;;;;;26.50;21.50;;;;;10.09;81.36;99741.88;4996893;28;45618;-52
2021/12/25 07:20:00;;;;;;;;;22.75;18.75;;;;;10.20;81.46;99759.47;5014345;28;45961;-52
2021/12/25 07:22:26;;;;;;;;;24.25;20.00;;;;;10.30;81.66;99770.69;5014182;28;45359;-58
2021/12/25 07:24:51;;;;;;;;;23.50;19.25;;;;;10.29;81.46;99768.19;5008685;28;45308;-58
2021/12/25 07:27:17;;;;;;;;;25.75;22.00;;;;;10.33;81.14;99768.53;5009791;28;45753;-52
2021/12/25 07:29:42;;;;;;;;;21.75;18.50;;;;;10.34;81.54;99770.25;5033870;28;45682;-54
2021/12/25 07:32:08;;;;;;;;;25.50;21.00;;;;;10.33;80.86;99768.53;5033651;28;45364;-60
2021/12/25 07:34:33;;;;;;;;;25.50;21.75;;;;;10.29;81.71;99766.28;5033867;28;45406;-55
2021/12/25 07:37:00;;;;;;;;;30.75;22.00;;;;;10.31;81.38;99771.53;5032644;28;45454;-55
2021/12/25 07:39:26;;;;;;;;;26.80;21.20;;;;;10.26;81.04;99763.16;5033406;28;46912;-57
2021/12/25 07:41:51;;;;;;;;;26.50;22.00;;;;;10.29;81.24;99769.03;5015465;28;45381;-55
2021/12/25 07:44:17;;;;;;;;;28.25;21.25;;;;;10.29;81.48;99774.50;5033894;28;45273;-51
2021/12/25 07:46:44;;;;;;;;;25.25;23.00;;;;;10.31;81.16;99777.84;5011974;28;45355;-53
2021/12/25 07:49:16;;;;;;;;;24.80;20.80;;;;;10.29;81.05;99779.16;5011206;28;47969;-54
2021/12/25 07:51:41;;;;;;;;;20.80;20.20;;;;;10.32;81.30;99781.44;5011139;28;45446;-50
2021/12/25 07:54:08;;;;;;;;;21.75;17.00;;;;;10.18;80.64;99756.09;5014333;28;45429;-51
2021/12/25 07:56:34;;;;;;;;;24.40;19.00;;;;;10.33;81.76;99769.38;5017092;28;45442;-53
2021/12/25 07:58:59;;;;;;;;;30.25;23.50;;;;;10.25;81.47;99764.25;5016943;28;46153;-57
2021/12/25 08:01:25;;;;;;;;;17.75;14.75;;;;;10.33;80.94;99771.28;5017137;28;45365;-55
2021/12/25 08:03:50;;;;;;;;;17.25;17.25;;;;;10.36;80.98;99781.81;5015473;28;45436;-53
2021/12/25 08:06:16;;;;;;;;;26.00;21.75;;;;;10.30;81.53;99780.84;5017143;28;45526;-60
2021/12/25 08:08:42;;;;;;;;;26.00;21.75;;;;;10.37;81.68;99783.47;5016707;28;46897;-54
2021/12/25 08:11:08;;;;;;;;;26.00;21.25;;;;;10.38;81.49;99791.47;5016730;28;45346;-50
2021/12/25 08:13:33;;;;;;;;;24.75;19.25;;;;;10.40;81.15;99785.72;5015895;28;45324;-58
2021/12/25 08:15:58;;;;;;;;;21.50;19.75;;;;;10.40;80.73;99791.22;5016311;28;45772;-49
2021/12/25 08:18:24;;;;;;;;;23.50;20.25;;;;;10.45;80.70;99791.38;5016539;28;46335;-53
2021/12/25 08:20:50;;;;;;;;;23.50;19.50;;;;;10.46;80.87;99793.06;5015190;28;45408;-60
2021/12/25 08:23:15;;;;;;;;;30.75;24.25;;;;;10.49;80.48;99795.34;5016630;28;45432;-55
2021/12/25 08:25:40;;;;;;;;;24.00;19.75;;;;;10.50;81.07;99797.00;5017544;28;45414;-54
2021/12/25 08:28:06;;;;;;;;;20.00;19.75;;;;;10.52;80.46;99794.88;5016697;28;45424;-60
2021/12/25 08:30:31;;;;;;;;;24.75;22.25;;;;;10.33;80.22;99763.06;5016855;28;45616;-52
2021/12/25 08:32:58;;;;;;;;;24.25;20.50;;;;;10.36;81.07;99765.34;4982581;28;45386;-57
2021/12/25 08:35:25;;;;;;;;;25.40;24.00;;;;;10.55;80.02;99793.56;5016975;28;45460;-61
2021/12/25 08:37:51;;;;;;;;;23.00;20.20;;;;;10.56;80.33;99795.22;4998789;28;48110;-56
2021/12/25 08:40:16;;;;;;;;;24.75;21.25;;;;;10.53;80.23;99791.06;4998923;28;45382;-52
2021/12/25 08:42:47;;;;;;;;;27.00;22.25;;;;;10.53;80.30;99801.19;4999140;28;45634;-60
2021/12/25 08:47:59;;;;;;;;;24.00;19.60;;;;;10.51;80.38;99798.69;4976976;28;45742;-61
2021/12/25 08:50:25;;;;;;;;;19.75;19.75;;;;;10.54;79.88;99802.88;4959618;28;45365;-58
2021/12/25 08:52:50;;;;;;;;;18.75;18.50;;;;;10.51;79.67;99798.69;4977285;28;45417;-56
2021/12/25 08:55:16;;;;;;;;;18.75;15.75;;;;;10.56;79.65;99798.81;4977537;28;45261;-61
2021/12/25 08:57:41;;;;;;;;;19.00;15.75;;;;;10.58;80.13;99798.59;4947289;28;46008;-58
2021/12/25 09:00:08;;;;;;;;;24.00;19.50;;;;;10.64;80.14;99805.88;5016554;28;45379;-55
2021/12/25 09:02:33;;;;;;;;;21.80;18.00;;;;;10.64;79.58;99807.78;4998665;28;45333;-60
2021/12/25 09:04:59;;;;;;;;;15.50;13.25;;;;;10.66;80.16;99808.38;4998430;28;45354;-60
2021/12/25 09:07:24;;;;;;;;;23.25;19.50;;;;;10.69;80.18;99811.47;4998407;28;46396;-50
2021/12/25 09:09:50;;;;;;;;;16.25;16.25;;;;;10.52;79.53;99777.59;5016249;28;45352;-53
2021/12/25 09:12:16;;;;;;;;;30.75;22.00;;;;;10.48;79.87;99770.88;5016362;28;45376;-59
2021/12/25 09:14:43;;;;;;;;;24.60;20.40;;;;;10.50;79.91;99786.03;5016479;28;45604;-55
2021/12/25 09:17:09;;;;;;;;;22.60;20.00;;;;;10.67;80.18;99804.59;4954080;28;46997;-57
2021/12/25 09:19:35;;;;;;;;;29.60;24.00;;;;;10.69;79.84;99814.22;4992240;28;45531;-60
2021/12/25 09:22:00;;;;;;;;;18.00;17.25;;;;;10.50;80.20;99786.03;4974030;28;45963;-56
2021/12/25 09:24:26;;;;;;;;;27.75;22.25;;;;;10.74;79.47;99818.19;5024243;28;45363;-50
2021/12/25 09:26:51;;;;;;;;;21.50;20.25;;;;;10.71;79.41;99814.84;5005501;28;46035;-56
2021/12/25 09:29:17;;;;;;;;;18.75;16.50;;;;;10.75;79.61;99822.59;5012123;28;45881;-57
2021/12/25 09:31:42;;;;;;;;;23.75;20.00;;;;;10.75;78.90;99817.97;4977794;28;45544;-53
2021/12/25 09:34:08;;;;;;;;;20.50;18.75;;;;;10.75;79.15;99820.69;4993660;28;45525;-60
2021/12/25 09:36:34;;;;;;;;;21.25;18.50;;;;;10.78;79.32;99824.88;5031421;28;45704;-60
2021/12/25 09:39:00;;;;;;;;;23.00;16.80;;;;;10.57;79.46;99788.69;5031547;28;45438;-59
2021/12/25 09:41:26;;;;;;;;;21.40;18.80;;;;;10.78;78.87;99825.69;5031783;28;45664;-53
2021/12/25 09:43:51;;;;;;;;;21.00;19.00;;;;;10.84;79.09;99827.50;5031585;28;45487;-60
2021/12/25 09:46:18;;;;;;;;;19.25;14.75;;;;;10.87;79.19;99825.38;5024226;28;45489;-59
2021/12/25 09:48:43;;;;;;;;;13.60;9.80;;;;;10.90;77.92;99835.88;5011320;28;45466;-55
2021/12/25 09:51:09;;;;;;;;;21.50;16.75;;;;;10.91;78.23;99824.66;5011629;28;45607;-58
2021/12/25 09:53:35;;;;;;;;;22.75;18.25;;;;;10.95;78.79;99834.09;4993973;28;45412;-57
2021/12/25 09:56:02;;;;;;;;;23.75;18.75;;;;;10.93;78.27;99830.75;5007758;28;45542;-56
2021/12/25 09:58:28;;;;;;;;;16.20;15.20;;;;;10.93;78.06;99822.50;5008523;28;45473;-63
2021/12/25 10:00:53;;;;;;;;;21.40;15.40;;;;;10.95;78.42;99831.34;4993581;28;45547;-57
2021/12/25 10:03:19;;;;;;;;;19.75;18.75;;;;;10.99;78.41;99834.44;5011826;28;45677;-59
2021/12/25 10:05:46;;;;;;;;;14.20;14.20;;;;;11.02;77.58;99827.66;5011406;28;45866;-54
2021/12/25 10:08:22;;;;;;;;;16.00;14.40;;;;;11.00;78.37;99827.91;5011267;28;45593;-61
2021/12/25 10:10:55;;;;;;;;;19.60;15.40;;;;;10.97;78.42;99834.69;4993716;28;45493;-56
2021/12/25 10:13:21;;;;;;;;;17.20;16.00;;;;;10.97;78.40;99829.22;5013994;28;45889;-60
2021/12/25 10:15:48;;;;;;;;;16.20;12.80;;;;;11.02;78.20;99824.91;5017528;28;45465;-60
2021/12/25 10:18:14;;;;;;;;;15.20;13.80;;;;;11.07;78.13;99825.03;5030433;28;45968;-58
2021/12/25 10:20:39;;;;;;;;;24.00;14.50;;;;;11.11;77.75;99826.25;5031263;28;45919;-52
2021/12/25 10:23:14;;;;;;;;;18.75;18.25;;;;;11.14;77.77;99817.50;5003310;28;45765;-61
2021/12/25 10:25:50;;;;;;;;;24.00;13.40;;;;;11.19;77.58;99823.13;5010682;28;47239;-54
2021/12/25 10:28:21;;;;;;;;;17.20;14.40;;;;;11.22;77.43;99819.88;5010567;28;45497;-61
2021/12/25 10:30:58;;;;;;;;;21.60;19.20;;;;;11.22;77.88;99811.66;4976363;28;45777;-60
2021/12/25 10:33:39;;;;;;;;;19.60;15.00;;;;;11.21;77.46;99807.22;5011027;28;45422;-63
2021/12/25 10:36:26;;;;;;;;;23.20;18.00;;;;;11.24;77.62;99816.91;5009134;28;46760;-61
2021/12/25 10:39:01;;;;;;;;;20.20;17.60;;;;;11.24;77.27;99812.25;5010391;28;45411;-60
2021/12/25 10:41:26;;;;;;;;;22.00;19.80;;;;;11.22;77.50;99817.13;5010686;28;45424;-62
2021/12/25 10:44:08;;;;;;;;;19.75;19.00;;;;;11.26;77.52;99817.50;4976692;28;45490;-57
2021/12/25 10:46:54;;;;;;;;;23.80;21.20;;;;;11.26;77.79;99814.75;4993860;28;46074;-61
2021/12/25 10:49:20;;;;;;;;;25.00;21.60;;;;;11.20;77.17;99808.31;5009602;28;45387;-59
2021/12/25 10:51:46;;;;;;;;;18.60;17.60;;;;;11.03;77.06;99785.38;4951085;28;46028;-64
2021/12/25 10:54:14;;;;;;;;;24.25;20.50;;;;;11.22;77.28;99808.09;5010163;28;45499;-53
2021/12/25 10:56:40;;;;;;;;;23.80;19.20;;;;;11.27;77.37;99808.22;4981416;28;45610;-54
2021/12/25 10:59:11;;;;;;;;;21.60;20.60;;;;;11.26;77.52;99803.75;5007485;28;45510;-55
2021/12/25 11:01:38;;;;;;;;;21.80;19.80;;;;;11.30;77.73;99798.66;5010344;28;45871;-54
2021/12/25 11:04:04;;;;;;;;;19.40;15.80;;;;;11.24;77.53;99794.94;5010089;28;45515;-58
2021/12/25 11:06:30;;;;;;;;;18.75;16.50;;;;;11.30;77.23;99787.66;5009143;28;46413;-54
2021/12/25 11:08:55;;;;;;;;;18.75;16.50;;;;;11.30;76.89;99791.22;5009627;28;45499;-53
2021/12/25 11:11:20;;;;;;;;;25.25;21.00;;;;;11.21;77.10;99777.03;4974064;28;45479;-61
2021/12/25 11:13:49;;;;;;;;;24.50;20.75;;;;;11.23;77.34;99777.63;4991280;28;45456;-61
2021/12/25 11:16:15;;;;;;;;;20.20;16.00;;;;;11.14;77.04;99754.34;4995549;28;45869;-59
2021/12/25 11:19:06;;;;;;;;;20.60;18.40;;;;;11.35;77.40;99779.53;5009564;28;45487;-53
2021/12/25 11:21:59;;;;;;;;;24.40;18.80;;;;;11.36;77.19;99779.28;5009493;28;45701;-55
2021/12/25 11:24:26;;;;;;;;;25.00;19.40;;;;;11.41;77.61;99781.31;4983630;28;45581;-52
2021/12/25 11:26:57;;;;;;;;;20.20;16.60;;;;;11.19;77.65;99740.72;4982029;28;46067;-54
2021/12/25 11:29:24;;;;;;;;;22.40;18.80;;;;;11.44;77.81;99769.84;5011434;28;45769;-56
2021/12/25 11:31:50;;;;;;;;;21.00;18.60;;;;;11.48;78.01;99776.50;5013374;28;45800;-57
2021/12/25 11:34:17;;;;;;;;;19.20;16.80;;;;;11.33;77.67;99746.81;5011293;28;45549;-60
2021/12/25 11:36:45;;;;;;;;;26.80;21.60;;;;;11.36;77.08;99742.72;4993769;28;45665;-57
2021/12/25 11:39:11;;;;;;;;;25.80;20.00;;;;;11.59;77.45;99763.81;4995195;28;45284;-54
2021/12/25 11:41:37;;;;;;;;;24.00;20.00;;;;;11.57;76.97;99751.44;5013544;28;45830;-51
2021/12/25 11:44:07;;;;;;;;;22.20;18.20;;;;;11.62;77.07;99757.84;4995882;28;45575;-55
2021/12/25 11:46:40;;;;;;;;;23.80;21.40;;;;;11.52;77.13;99744.72;5012971;28;47056;-54
2021/12/25 11:49:11;;;;;;;;;23.80;22.80;;;;;11.41;76.91;99728.28;5011721;28;45804;-56
2021/12/25 11:51:39;;;;;;;;;33.00;26.40;;;;;11.59;76.98;99761.06;4995408;28;45558;-60
2021/12/25 11:59:49;;;;;;;;;23.80;21.60;;;;;11.56;77.20;99742.34;5011639;28;45498;-55
2021/12/25 12:02:37;;;;;;;;;23.40;19.00;;;;;11.56;77.30;99752.47;5013252;28;45702;-60
2021/12/25 12:05:20;;;;;;;;;22.00;19.80;;;;;11.57;77.33;99755.00;5013355;28;45958;-54
2021/12/25 12:08:00;;;;;;;;;22.40;20.00;;;;;11.59;77.34;99752.81;5009485;28;45415;-58
2021/12/25 12:10:44;;;;;;;;;18.00;15.40;;;;;11.60;77.19;99749.03;4971635;28;45701;-53
2021/12/25 12:13:32;;;;;;;;;18.20;17.20;;;;;11.60;76.71;99754.53;4978707;28;45494;-53
2021/12/25 12:16:01;;;;;;;;;20.00;16.60;;;;;11.60;76.89;99753.66;4991468;28;45387;-57
2021/12/25 12:18:27;;;;;;;;;25.40;21.00;;;;;11.26;77.19;99704.88;4995719;28;45497;-57
2021/12/25 12:20:59;;;;;;;;;23.80;21.80;;;;;11.58;77.74;99751.16;4996367;28;45406;-54
2021/12/25 12:23:46;;;;;;;;;27.40;24.20;;;;;11.49;77.48;99736.13;5000666;28;45428;-48
2021/12/25 12:26:13;;;;;;;;;25.20;23.20;;;;;11.46;77.46;99720.13;4999141;28;45842;-55
2021/12/25 12:28:46;;;;;;;;;31.20;27.40;;;;;11.60;77.66;99751.78;4949186;28;46594;-54
2021/12/25 12:31:46;;;;;;;;;27.20;22.60;;;;;11.61;77.38;99755.34;5036358;28;45560;-61
2021/12/25 12:34:29;;;;;;;;;26.60;22.40;;;;;11.60;77.33;99745.44;5018628;28;45427;-58
2021/12/25 12:37:13;;;;;;;;;24.20;21.20;;;;;11.60;77.39;99750.94;5036852;28;45585;-60
2021/12/25 12:40:17;;;;;;;;;24.00;21.00;;;;;11.59;77.41;99741.84;5035790;28;46478;-52
2021/12/25 12:45:13;;;;;;;;;21.50;19.25;;;;;11.61;76.75;99744.34;5036309;28;45772;-60
2021/12/25 12:47:38;;;;;;;;;23.00;18.60;;;;;11.62;76.93;99735.88;5036780;28;45228;-52
2021/12/25 12:50:06;;;;;;;;;28.25;20.50;;;;;11.34;77.37;99700.94;5018248;28;46189;-56
2021/12/25 12:52:37;;;;;;;;;25.80;21.80;;;;;11.60;77.30;99746.28;5001782;28;45527;-54